Olinkraft, Louisiana
Current Conditions -  °F | °C
As of 4:53 AM on Monday 20 Oct 2014 (Local Time) from KMLU Reporting Station
Moderate Fog Moderate Fog  
Wind Chill: 46°   Ceiling: Unl
Heat Index: 46°   Visibility: 0.5mi
Dew Point: 45°   Wind: 0mph
Humidity: 96%   Direction: NA
Pressure: 30.08"   Gusts: NA
Location:  32.3932°N, 92.2204°W
Report Text: KMLU 200953Z AUTO 00000KT 1/2SM FG CLR 08/07 A3008 RMK AO2 SLP186 T00780072
Loading
Personal Weather Stations






























Interactive Weather Map
Tropical Storm Tracking
New forecast layout! Learn more

10-Day Weather Forecast

Advertisements
Track Severe Weather on mobile